Tiempo atmosférico en la estación meteorológica de Torreblanca, Castelló/Castellón (16 m.)



Fecha
DESCASC
Temp. máxima en grados centígrados (hora)
DESCASC
Temp. mínima en grados centígrados (hora)
DESCASC
Temp. media en grados centígrados
DESCASC
Racha de viento máxima en m/sg (hora)
DESCASC
Velocidad máxima media en intervalos de 10 minutos(hora)
DESCASC
Precipitaciones diarias en mm
DESCASC
Precipitaciones de 00:00 a 06:00 en mm
DESCASC
Precipitaciones de 06:00 a 12:00 en mm
DESCASC
Precipitaciones de 12:00 a 18:00 en mm
DESCASC
Precipitaciones de 18:00 a 24:00 en mm
DESCASC
16-04-2019 18.5 (13:50) 10.9 (07:40) 14.7 8.89 (13:10) 5.83 (13:10) 0 0 0 0 0
15-04-2019 19.2 (12:50) 13.2 (02:00) 16.2 8.61 (04:20) 5 (11:20) 0 0 0 0 0
14-04-2019 25.1 (14:40) 11.1 (00:00) 18.1 7.5 (05:20) 5.83 (07:20) 0 0 0 0 0
13-04-2019 18.1 (16:50) 9.8 (00:00) 14 7.22 (13:40) 4.17 (13:40) 0 0 0 0 0
12-04-2019 18.9 (11:50) 11.4 (00:00) 15.1 14.17 (00:50) 7.5 (00:40) 0 0 0 0 0
11-04-2019 21 (16:00) 12.6 (00:00) 16.8 14.17 (09:20) 8.89 (09:20) 0 0 0 0 0
10-04-2019 19.4 (13:40) 11 (00:00) 15.2 11.39 (00:50) 6.94 (00:50) 0.6 0 0 0 0.6
09-04-2019 20.3 (15:30) 12.7 (00:00) 16.5 14.44 (16:10) 6.39 (19:00) 1.6 0 0 1.2 0.4
08-04-2019 20 (17:50) 11.1 (00:00) 15.6 6.67 (01:30) 5 (23:40) 1.2 0 0 0 1.2
07-04-2019 19.5 (17:50) 8.8 (00:00) 14.2 11.67 (13:40) 6.67 (13:10) 0 0 0 0 0
06-04-2019 18.3 (15:50) 7.7 (00:00) 13 11.39 (17:50) 7.5 (17:50) 0 0 0 0 0
05-04-2019 16.9 (14:50) 8.9 (00:00) 12.9 11.11 (17:10) 7.5 (14:20) 0.6 0 0 0 0.6
04-04-2019 15.2 (13:10) 7.2 (00:00) 11.2 8.33 (13:50) 5.28 (13:30) 0 0 0 0 0
03-04-2019 17 (11:40) 10.3 (00:00) 13.7 12.78 (22:40) 7.78 (22:40) 1 0 0 1 0
02-04-2019 17.1 (12:30) 9.2 (00:00) 13.2 6.11 (18:40) 3.61 (13:00) 2.2 0 0 2.2 0
01-04-2019 16.6 (18:40) 10.3 (00:00) 13.5 7.5 (03:10) 5 (07:40) 0.2 0.2 0 0 0
31-03-2019 13.4 (12:50) 9.4 (00:00) 11.4 8.89 (19:00) 5.28 (23:20) 8.6 0 0.4 5.2 3
30-03-2019 16.5 (13:10) 8.1 (00:00) 12.3 8.89 (17:10) 6.11 (17:10) 0 0 0 0 0
29-03-2019 17.3 (14:00) 8.2 (00:00) 12.7 7.22 (05:10) 5.28 (05:40) 0 0 0 0 0
28-03-2019 17.9 (13:50) 7.9 (00:00) 12.9 7.5 (08:00) 5.83 (08:00) 0 0 0 0 0
27-03-2019 17.2 (15:20) 8.7 (00:00) 13 7.22 (03:30) 5 (03:30) 0 0 0 0 0
26-03-2019 18.5 (11:10) 11.7 (00:00) 15.1 9.72 (06:20) 6.67 (06:10) 0 0 0 0 0
25-03-2019 20.5 (09:50) 11.7 (00:00) 16.1 7.22 (07:50) 4.44 (07:30) 0 0 0 0 0
24-03-2019 21.1 (11:00) 11.2 (00:00) 16.2 7.22 (06:50) 5 (07:20) 0 0 0 0 0
23-03-2019 19.4 (10:40) 10.5 (00:00) 14.9 7.78 (05:40) 6.11 (05:40) 0 0 0 0 0
22-03-2019 19 (14:00) 8.2 (00:00) 13.6 10.83 (13:40) 7.5 (13:30) 0 0 0 0 0
21-03-2019 16.9 (11:30) 7.6 (00:00) 12.2 11.67 (12:30) 8.06 (12:50) 0 0 0 0 0
20-03-2019 15.6 (15:10) 8.2 (00:00) 11.9 7.5 (09:40) 5.28 (23:40) 0 0 0 0 0
19-03-2019 17.3 (13:00) 9.1 (00:00) 13.2 11.67 (09:40) 6.67 (11:30) 5.2 0 0 0 5.2

Gráficas

Temp. máximas Temp. mínimas Temp. medias Precipitaciones Rachas de viento máximas Velocidades máximas media en intervalos de 10 minutos

Datos horarios

Fecha y hora oficial Temperatura (ºC) Velocidad del viento (km/h) Dirección del viento Racha (km/h) Dirección de racha Precipitación (mm) Presión (hPa) Tendencia (hPa) Humedad (%)
2019-04-17 23:00:00 14 8 Nordeste 13 Nordeste 0 -- -- 83
2019-04-17 22:00:00 14.4 4 Este 11 Este 0 -- -- 82
2019-04-17 21:00:00 15 6 Sudeste 10 Sudeste 0 -- -- 81
2019-04-17 20:00:00 15.7 7 Sudeste 12 Sudeste 0 -- -- 77
2019-04-17 19:00:00 16.2 7 Sudeste 14 Sudeste 0 -- -- 75
2019-04-17 18:00:00 16.5 7 Sur 21 Sudeste 0 -- -- 72
2019-04-17 17:00:00 17 12 Sudeste 23 Sudeste 0 -- -- 71
2019-04-17 16:00:00 17.5 13 Sur 23 Sur 0 -- -- 70
2019-04-17 15:00:00 17.5 12 Sudeste 22 Sudeste 0 -- -- 70
2019-04-17 14:00:00 17.7 13 Sur 22 Sudeste 0 -- -- 69
2019-04-17 13:00:00 18 13 Sudeste 20 Sudeste 0 -- -- 66
2019-04-17 12:00:00 16.4 3 Sur 10 Sur 0 -- -- 75
2019-04-17 11:00:00 15.3 2 Sudoeste 6 Sudeste 0 -- -- 78
2019-04-17 10:00:00 14.3 2 Nordeste 11 Norte 0 -- -- 81
2019-04-17 09:00:00 13.5 8 Norte 13 Norte 0 -- -- 75
2019-04-17 08:00:00 12.7 7 Norte 18 Norte 0 -- -- 77
2019-04-17 07:00:00 12 12 Norte 21 Norte 0 -- -- 81
2019-04-17 06:00:00 12.2 12 Norte 17 Norte 0 -- -- 81
2019-04-17 05:00:00 11.9 13 Norte 19 Norte 0 -- -- 82
2019-04-17 04:00:00 12.1 13 Norte 21 Norte 0 -- -- 81
2019-04-17 03:00:00 11.9 17 Norte 23 Norte 0 -- -- 83
2019-04-17 02:00:00 12.7 13 Norte 18 Norte 0 -- -- 82
2019-04-17 01:00:00 12.7 13 Norte 18 Norte 0 -- -- 82
2019-04-17 00:00:00 12.6 12 Norte 17 Norte 0 -- -- 84
2019-04-16 23:00:00 13.2 12 Norte 16 Norte 0 -- -- 83
2019-04-16 22:00:00 13.9 5 Nordeste 14 Este 0 -- -- 81
2019-04-16 21:00:00 14.3 8 Este 20 Sudeste 0 -- -- 81
2019-04-16 20:00:00 15.3 11 Este 19 Sudeste 0 -- -- 78
2019-04-16 19:00:00 16.9 11 Sudeste 20 Este 0 -- -- 65
2019-04-16 18:00:00 17.9 9 Sur 20 Sudeste 0 -- -- 61
2019-04-16 17:00:00 18.3 9 Sudeste 19 Sudeste 0 -- -- 57
2019-04-16 16:00:00 17.8 10 Sur 22 Sur 0 -- -- 62
2019-04-16 15:00:00 18 13 Sur 25 Sudeste 0 -- -- 64
2019-04-16 14:00:00 18.4 17 Sur 32 Este 0 -- -- 62
2019-04-16 13:00:00 18.2 20 Sudeste 29 Sudeste 0 -- -- 58
2019-04-16 12:00:00 17.6 14 Sudeste 22 Sudeste 0 -- -- 62
2019-04-16 11:00:00 17.1 12 Sudeste 22 Sudeste 0 -- -- 66
2019-04-16 10:00:00 15.7 6 Este 17 Norte 0 -- -- 70
2019-04-16 09:00:00 13.6 10 Norte 19 Norte 0 -- -- 78
2019-04-16 08:00:00 11.3 13 Norte 21 Norte 0 -- -- 86
2019-04-16 07:00:00 11.2 13 Norte 17 Norte 0 -- -- 84
2019-04-16 06:00:00 11.8 10 Norte 23 Norte 0 -- -- 83
2019-04-16 05:00:00 12.3 11 Norte 22 Norte 0 -- -- 82
2019-04-16 04:00:00 12.4 14 Norte 20 Norte 0 -- -- 79
2019-04-16 03:00:00 12.5 14 Norte 20 Norte 0 -- -- 80
2019-04-16 02:00:00 12.8 13 Norte 24 Norte 0 -- -- 79
2019-04-16 01:00:00 12.9 13 Norte 19 Norte 0 -- -- 77
2019-04-16 00:00:00 13.5 12 Norte 19 Norte 0 -- -- 78
2019-04-15 23:00:00 14 12 Norte 16 Norte 0 -- -- 78
2019-04-15 22:00:00 14 6 Nordeste 12 Este 0 -- -- 80
2019-04-15 21:00:00 14.3 5 Este 15 Este 0 -- -- 78
2019-04-15 20:00:00 15.8 9 Este 18 Sudeste 0 -- -- 70
2019-04-15 19:00:00 16.1 11 Sudeste 23 Sudeste 0 -- -- 69
2019-04-15 18:00:00 16.5 14 Este 19 Este 0 -- -- 67
2019-04-15 17:00:00 16.6 14 Sudeste 24 Sudeste 0 -- -- 65
2019-04-15 16:00:00 17.9 15 Sudeste 23 Sudeste 0 -- -- 61
2019-04-15 15:00:00 18.3 14 Sudeste 23 Sudeste 0 -- -- 61
2019-04-15 14:00:00 18.7 11 Sudeste 26 Sudeste 0 -- -- 61
2019-04-15 13:00:00 19.2 11 Sur 21 Sudeste 0 -- -- 48
2019-04-15 12:00:00 18.7 17 Este 26 Este 0 -- -- 61
2019-04-15 11:00:00 17.9 12 Sudeste 22 Sudeste 0 -- -- 64
2019-04-15 10:00:00 17.1 9 Nordeste 19 Norte 0 -- -- 63
2019-04-15 09:00:00 15.1 13 Nordeste 20 Nordeste 0 -- -- 71
2019-04-15 08:00:00 13.5 12 Norte 19 Norte 0 -- -- 81
2019-04-15 07:00:00 13.6 11 Nordeste 22 Nordeste 0 -- -- 81
2019-04-15 06:00:00 13.9 13 Nordeste 24 Nordeste 0 -- -- 83
2019-04-15 05:00:00 13.8 11 Nordeste 31 Nordeste 0 -- -- 84
2019-04-15 04:00:00 13.4 14 Nordeste 28 Nordeste 0 -- -- 87
2019-04-15 03:00:00 13.2 15 Nordeste 25 Nordeste 0 -- -- 88
2019-04-15 02:00:00 13.2 5 Nordeste 14 Norte 0 -- -- 84
2019-04-15 01:00:00 13.9 5 Norte 9 Norte 0 -- -- 78
2019-04-15 00:00:00 14.4 4 Sudoeste 6 Norte 0 -- -- 65
2019-04-14 23:00:00 15.4 3 Sudeste 17 Nordeste 0 -- -- 61
2019-04-14 22:00:00 15.7 5 Nordeste 12 Nordeste 0 -- -- 59
2019-04-14 21:00:00 16.4 4 Noroeste 8 Sudeste 0 -- -- 61
2019-04-14 20:00:00 18 5 Sudeste 17 Este 0 -- -- 56
2019-04-14 19:00:00 19.1 10 Sudeste 21 Este 0 -- -- 52
2019-04-14 18:00:00 20.2 9 Sudeste 17 Sudeste 0 -- -- 53
2019-04-14 17:00:00 20.5 9 Este 20 Este 0 -- -- 57
2019-04-14 16:00:00 22.8 15 Este 24 Sudeste 0 -- -- 45
2019-04-14 15:00:00 24.3 17 Sudoeste 25 Sudoeste 0 -- -- 35
2019-04-14 14:00:00 23.8 8 Sur 15 Sur 0 -- -- 41
2019-04-14 13:00:00 22.4 4 Sur 15 Sur 0 -- -- 43
2019-04-14 12:00:00 23.5 8 Sur 15 Sudeste 0 -- -- 30
2019-04-14 11:00:00 23 9 Sur 14 Sur 0 -- -- 40
2019-04-14 10:00:00 19.7 4 Noroeste 23 Norte 0 -- -- 34
2019-04-14 09:00:00 17.1 10 Norte 27 Norte 0 -- -- 33
2019-04-14 08:00:00 15.4 19 Norte 27 Norte 0 -- -- 31
2019-04-14 07:00:00 14.8 18 Norte 26 Norte 0 -- -- 31
2019-04-14 06:00:00 15.1 16 Norte 27 Norte 0 -- -- 30
2019-04-14 05:00:00 14.1 13 Norte 24 Norte 0 -- -- 35
2019-04-14 04:00:00 13.1 16 Norte 23 Norte 0 -- -- 50
2019-04-14 03:00:00 12.4 9 Norte 17 Norte 0 -- -- 55
2019-04-14 02:00:00 11.4 3 Norte 12 Noroeste 0 -- -- 60
2019-04-14 01:00:00 11.4 5 Noroeste 9 Norte 0 -- -- 65
2019-04-14 00:00:00 11.6 3 Noroeste 8 Noroeste 0 -- -- 70
2019-04-13 23:00:00 12 4 Noroeste 9 Norte 0 -- -- 76
2019-04-13 22:00:00 13.2 3 Norte 8 Norte 0 -- -- 83
2019-04-13 21:00:00 15.3 0 Calma 8 Sur 0 -- -- 79
2019-04-13 20:00:00 16.3 8 Sur 14 Sudoeste 0 -- -- 77
2019-04-13 19:00:00 17.1 11 Sur 19 Sur 0 -- -- 67
2019-04-13 18:00:00 17.7 13 Sur 21 Sudoeste 0 -- -- 59
2019-04-13 17:00:00 18 13 Sur 21 Sudeste 0 -- -- 55
2019-04-13 16:00:00 17.9 13 Sur 24 Sur 0 -- -- 56
2019-04-13 15:00:00 17.9 12 Sur 24 Sudeste 0 -- -- 53
2019-04-13 14:00:00 17.6 14 Sur 26 Sur 0 -- -- 58
2019-04-13 13:00:00 17.6 13 Sur 21 Sur 0 -- -- 55
2019-04-13 12:00:00 17.4 12 Sur 19 Sur 0 -- -- 55
2019-04-13 11:00:00 17.4 9 Sur 14 Sur 0 -- -- 49
2019-04-13 10:00:00 16.4 5 Sur 10 Noroeste 0 -- -- 41
2019-04-13 09:00:00 13.7 6 Norte 15 Norte 0 -- -- 41
2019-04-13 08:00:00 10.6 5 Norte 13 Norte 0 -- -- 49
2019-04-13 07:00:00 10.6 9 Norte 15 Norte 0 -- -- 51
2019-04-13 06:00:00 10.8 4 Noroeste 11 Norte 0 -- -- 53
2019-04-13 05:00:00 10.9 4 Noroeste 16 Nordeste 0 -- -- 52
2019-04-13 04:00:00 12 10 Norte 15 Nordeste 0 -- -- 49
2019-04-13 03:00:00 11.4 10 Norte 17 Norte 0 -- -- 54
2019-04-13 02:00:00 11.3 8 Noroeste 15 Norte 0 -- -- 57
2019-04-13 01:00:00 12.2 11 Noroeste 17 Norte 0 -- -- 59
2019-04-13 00:00:00 11.6 5 Nordeste 8 Noroeste 0 -- -- 63
2019-04-12 23:00:00 12.5 0 Calma 8 Noroeste 0 -- -- 62
2019-04-12 22:00:00 12.9 8 Norte 11 Noroeste 0 -- -- 58
2019-04-12 21:00:00 14.6 2 Noroeste 14 Sudoeste 0 -- -- 59
2019-04-12 20:00:00 16.2 9 Sudoeste 23 Sudoeste 0 -- -- 61
2019-04-12 19:00:00 17.2 13 Sudoeste 26 Sudoeste 0 -- -- 54
2019-04-12 18:00:00 17.5 16 Sudoeste 29 Sudoeste 0 -- -- 53
2019-04-12 17:00:00 18 19 Sudoeste 27 Sur 0 -- -- 45
2019-04-12 16:00:00 18.3 17 Sur 24 Sur 0 -- -- 53
2019-04-12 15:00:00 17.8 16 Sudoeste 23 Sudoeste 0 -- -- 44
2019-04-12 14:00:00 17.6 14 Sur 25 Sudoeste 0 -- -- 46
2019-04-12 13:00:00 18.3 17 Sudoeste 27 Sur 0 -- -- 45
2019-04-12 12:00:00 18.6 17 Sur 23 Sudoeste 0 -- -- 43
2019-04-12 11:00:00 18.2 14 Nordeste 23 Este 0 -- -- 39
2019-04-12 10:00:00 16.4 10 Norte 20 Norte 0 -- -- 42
2019-04-12 09:00:00 13.2 4 Oeste 9 Oeste 0 -- -- 51
2019-04-12 08:00:00 11.7 2 Oeste 25 Norte 0 -- -- 53
2019-04-12 07:00:00 12.5 17 Norte 32 Norte 0 -- -- 51
2019-04-12 06:00:00 12.8 19 Norte 30 Norte 0 -- -- 49
2019-04-12 05:00:00 12.8 17 Norte 32 Norte 0 -- -- 49
2019-04-12 04:00:00 13.2 21 Norte 39 Norte 0 -- -- 47
2019-04-12 03:00:00 13.7 26 Norte 40 Norte 0 -- -- 45
2019-04-12 02:00:00 14.2 22 Norte 44 Norte 0 -- -- 45
2019-04-12 01:00:00 14.6 27 Norte 51 Norte 0 -- -- 45
2019-04-12 00:00:00 14.8 23 Norte 46 Norte 0 -- -- 46
2019-04-11 23:00:00 15.2 21 Norte 42 Norte 0 -- -- 46
2019-04-11 22:00:00 15.7 19 Norte 40 Norte 0 -- -- 44
2019-04-11 21:00:00 16.8 19 Norte 45 Norte 0 -- -- 39
2019-04-11 20:00:00 18.6 20 Norte 37 Norte 0 -- -- 34
2019-04-11 19:00:00 19.8 22 Norte 40 Norte 0 -- -- 32
2019-04-11 18:00:00 20.6 21 Norte 37 Norte 0 -- -- 29
2019-04-11 17:00:00 20.3 17 Norte 28 Nordeste 0 -- -- 30
2019-04-11 16:00:00 21 12 Nordeste 41 Nordeste 0 -- -- 30
2019-04-11 15:00:00 20.5 19 Norte 40 Nordeste 0 -- -- 30
2019-04-11 14:00:00 20.5 22 Nordeste 41 Norte 0 -- -- 30
2019-04-11 13:00:00 19.2 19 Norte 41 Norte 0 -- -- 32
2019-04-11 12:00:00 18 22 Norte 43 Norte 0 -- -- 36
2019-04-11 11:00:00 17 23 Norte 47 Norte 0 -- -- 38
2019-04-11 10:00:00 15.4 24 Norte 51 Norte 0 -- -- 43
2019-04-11 09:00:00 14 28 Norte 48 Norte 0 -- -- 47
2019-04-11 08:00:00 12.9 24 Norte 40 Norte 0 -- -- 50
2019-04-11 07:00:00 12.9 22 Norte 38 Norte 0 -- -- 51
2019-04-11 06:00:00 13 17 Norte 33 Norte 0 -- -- 51
2019-04-11 05:00:00 12.8 13 Norte 35 Norte 0 -- -- 52
2019-04-11 04:00:00 12.9 17 Norte 31 Norte 0 -- -- 52
2019-04-11 03:00:00 13.4 17 Norte 30 Norte 0 -- -- 52
2019-04-11 02:00:00 13.7 16 Norte 32 Norte 0 -- -- 53
2019-04-11 01:00:00 14.4 16 Norte 32 Norte 0 -- -- 54
2019-04-11 00:00:00 14.6 21 Norte 32 Norte 0 -- -- 49
2019-04-10 23:00:00 14 13 Norte 27 Norte 0 -- -- 51
2019-04-10 22:00:00 13 7 Norte 10 Norte 0 -- -- 64
2019-04-10 21:00:00 13.4 9 Norte 32 Este 0.6 -- -- 72
2019-04-10 20:00:00 16.3 10 Sudeste 36 Este 0 -- -- 70
2019-04-10 19:00:00 17.4 15 Sur 26 Sudoeste 0 -- -- 54
2019-04-10 18:00:00 18.1 9 Sur 17 Sudoeste 0 -- -- 47
2019-04-10 17:00:00 18.6 9 Oeste 22 Sur 0 -- -- 41
2019-04-10 16:00:00 18 13 Sur 23 Sur 0 -- -- 43
2019-04-10 15:00:00 17.8 16 Sur 27 Nordeste 0 -- -- 44
2019-04-10 14:00:00 19.2 12 Norte 30 Noroeste 0 -- -- 35
2019-04-10 13:00:00 18.2 15 Nordeste 30 Nordeste 0 -- -- 38
2019-04-10 12:00:00 17.7 12 Norte 35 Noroeste 0 -- -- 38
2019-04-10 11:00:00 17.1 21 Norte 37 Norte 0 -- -- 39
2019-04-10 10:00:00 15.9 15 Norte 31 Norte 0 -- -- 44
2019-04-10 09:00:00 12.8 4 Oeste 12 Norte 0 -- -- 58
2019-04-10 08:00:00 11 6 Norte 14 Norte 0 -- -- 62
2019-04-10 07:00:00 12.2 7 Norte 18 Norte 0 -- -- 55
2019-04-10 06:00:00 13.6 8 Norte 20 Norte 0 -- -- 50
2019-04-10 05:00:00 13.8 6 Nordeste 19 Noroeste 0 -- -- 51
2019-04-10 04:00:00 14.3 13 Norte 32 Norte 0 -- -- 51
2019-04-10 03:00:00 14.5 12 Norte 31 Norte 0 -- -- 51
2019-04-10 02:00:00 14.6 13 Norte 39 Norte 0 -- -- 51
2019-04-10 01:00:00 14.3 22 Norte 41 Norte 0 -- -- 52
2019-04-10 00:00:00 13.9 18 Norte 31 Norte 0 -- -- 54
2019-04-09 23:00:00 14.2 13 Norte 24 Norte 0 -- -- 53
2019-04-09 22:00:00 13 9 Norte 18 Noroeste 0 -- -- 65
2019-04-09 21:00:00 13.2 13 Noroeste 22 Noroeste 0 -- -- 67
2019-04-09 20:00:00 15.2 6 Sudoeste 30 Norte 0.2 -- -- 58
2019-04-09 19:00:00 16 23 Norte 39 Noroeste 0.2 -- -- 53
2019-04-09 18:00:00 17.1 4 Norte 12 Noroeste 0 -- -- 59
2019-04-09 17:00:00 16.2 3 Sudeste 52 Noroeste 1.2 -- -- 52
2019-04-09 16:00:00 19.1 11 Sudoeste 27 Sur 0 -- -- 49
2019-04-09 15:00:00 18.3 13 Sur 28 Sudoeste 0 -- -- 60
2019-04-09 14:00:00 19.3 21 Sudoeste 28 Sur 0 -- -- 40
2019-04-09 13:00:00 18.9 19 Sur 27 Sur 0 -- -- 41
2019-04-09 12:00:00 18 18 Sur 24 Sur 0 -- -- 40
2019-04-09 11:00:00 17.2 11 Sur 17 Sur 0 -- -- 49
2019-04-09 10:00:00 16.2 6 Sur 13 Sur 0 -- -- 49
2019-04-09 09:00:00 13.9 4 Sudoeste 10 Oeste 0 -- -- 55
2019-04-09 08:00:00 13.5 6 Nordeste 23 Norte 0 -- -- 55
2019-04-09 07:00:00 13.5 11 Norte 22 Norte 0 -- -- 55
2019-04-09 06:00:00 13.7 14 Norte 27 Norte 0 -- -- 56
2019-04-09 05:00:00 12.8 6 Noroeste 19 Norte 0 -- -- 69
2019-04-09 04:00:00 13.6 13 Norte 26 Norte 0 -- -- 72
2019-04-09 03:00:00 13.3 10 Norte 21 Norte 0 -- -- 77
2019-04-09 02:00:00 13 6 Noroeste 19 Norte 0 -- -- 78
2019-04-09 01:00:00 13.2 5 Noroeste 19 Norte 0 -- -- 78
2019-04-09 00:00:00 13.5 15 Norte 23 Norte 0 -- -- 78
2019-04-08 23:00:00 13.7 18 Norte 23 Norte 0 -- -- 80
2019-04-08 22:00:00 14.5 13 Norte 20 Norte 0 -- -- 82
2019-04-08 21:00:00 15 3 Norte 13 Este 0 -- -- 86
2019-04-08 20:00:00 16.4 4 Este 14 Nordeste 1.2 -- -- 80
2019-04-08 19:00:00 18.3 10 Este 18 Sudeste 0 -- -- 64
2019-04-08 18:00:00 19.2 13 Este 21 Sudeste 0 -- -- 59
2019-04-08 17:00:00 19.7 15 Sudeste 21 Sudeste 0 -- -- 55
2019-04-08 16:00:00 19.3 9 Sudeste 16 Sudeste 0 -- -- 60
2019-04-08 15:00:00 18.4 7 Sur 15 Sudeste 0 -- -- 55
2019-04-08 14:00:00 18.2 8 Sudeste 17 Sur 0 -- -- 49
2019-04-08 13:00:00 19 7 Sudeste 16 Sudeste 0 -- -- 47
2019-04-08 12:00:00 18.1 7 Sur 16 Sudoeste 0 -- -- 47
2019-04-08 11:00:00 16.3 5 Sudeste 9 Este 0 -- -- 50
2019-04-08 10:00:00 14.2 6 Norte 17 Norte 0 -- -- 51
2019-04-08 09:00:00 12.9 3 Noroeste 13 Norte 0 -- -- 58
2019-04-08 08:00:00 12.1 3 Oeste 13 Norte 0 -- -- 62
2019-04-08 07:00:00 11.1 10 Norte 15 Norte 0 -- -- 61
2019-04-08 06:00:00 11.6 7 Norte 9 Norte 0 -- -- 64
2019-04-08 05:00:00 11.9 5 Noroeste 8 Noroeste 0 -- -- 66
2019-04-08 04:00:00 11.8 0 Calma 15 Norte 0 -- -- 59
2019-04-08 03:00:00 11.8 3 Este 18 Norte 0 -- -- 52
2019-04-08 02:00:00 11.6 13 Norte 24 Norte 0 -- -- 51
2019-04-08 01:00:00 12.2 13 Norte 21 Norte 0 -- -- 53
2019-04-08 00:00:00 12.6 12 Norte 18 Norte 0 -- -- 53
2019-04-07 23:00:00 13.3 4 Noroeste 10 Noroeste 0 -- -- 54
2019-04-07 22:00:00 14 5 Noroeste 8 Noroeste 0 -- -- 57
2019-04-07 21:00:00 15.5 3 Sur 24 Sudoeste 0 -- -- 53
2019-04-07 20:00:00 17.4 6 Norte 24 Norte 0 -- -- 31
2019-04-07 19:00:00 19.2 13 Norte 27 Norte 0 -- -- 28
2019-04-07 18:00:00 19.4 16 Norte 30 Noroeste 0 -- -- 27
2019-04-07 17:00:00 19.3 15 Nordeste 34 Norte 0 -- -- 29
2019-04-07 16:00:00 18.4 17 Norte 35 Noroeste 0 -- -- 30
2019-04-07 15:00:00 18.5 20 Norte 39 Norte 0 -- -- 29
2019-04-07 14:00:00 18.3 18 Norte 42 Norte 0 -- -- 31
2019-04-07 13:00:00 17.6 18 Norte 40 Norte 0 -- -- 33
2019-04-07 12:00:00 16.2 16 Norte 35 Norte 0 -- -- 36
2019-04-07 11:00:00 13.9 12 Norte 28 Norte 0 -- -- 42
2019-04-07 10:00:00 13.3 8 Nordeste 18 Nordeste 0 -- -- 42
2019-04-07 09:00:00 13.5 8 Nordeste 28 Noroeste 0 -- -- 41
2019-04-07 08:00:00 9.4 9 Norte 15 Norte 0 -- -- 56
2019-04-07 07:00:00 9.4 13 Noroeste 16 Noroeste 0 -- -- 57
2019-04-07 06:00:00 9.8 8 Noroeste 14 Noroeste 0 -- -- 57
2019-04-07 05:00:00 9.7 6 Norte 16 Norte 0 -- -- 60
2019-04-07 04:00:00 10.5 10 Norte 21 Noroeste 0 -- -- 57
2019-04-07 03:00:00 11.1 13 Noroeste 20 Noroeste 0 -- -- 55
2019-04-07 02:00:00 11.1 13 Noroeste 20 Noroeste 0 -- -- 57
2019-04-07 01:00:00 11.3 12 Noroeste 16 Noroeste 0 -- -- 57
2019-04-07 00:00:00 11.3 0 Calma 21 Norte 0 -- -- 58
2019-04-06 23:00:00 11.8 12 Norte 23 Noroeste 0 -- -- 57
2019-04-06 22:00:00 11.4 9 Noroeste 13 Noroeste 0 -- -- 59
2019-04-06 21:00:00 13.2 3 Noroeste 14 Oeste 0 -- -- 53
2019-04-06 20:00:00 15.3 12 Sudoeste 22 Sudoeste 0 -- -- 44
2019-04-06 19:00:00 15.8 14 Oeste 34 Noroeste 0 -- -- 41
2019-04-06 18:00:00 16.4 27 Noroeste 41 Noroeste 0 -- -- 39
2019-04-06 17:00:00 17.2 22 Oeste 35 Oeste 0 -- -- 34
2019-04-06 16:00:00 18.3 14 Oeste 36 Oeste 0 -- -- 31
2019-04-06 15:00:00 17 25 Oeste 39 Noroeste 0 -- -- 34
2019-04-06 14:00:00 17 18 Oeste 28 Oeste 0 -- -- 34
2019-04-06 13:00:00 16.9 5 Norte 27 Noroeste 0 -- -- 34
2019-04-06 12:00:00 16.4 12 Noroeste 24 Noroeste 0 -- -- 35
2019-04-06 11:00:00 15.1 12 Oeste 25 Oeste 0 -- -- 41
2019-04-06 10:00:00 13.1 5 Oeste 16 Sudoeste 0 -- -- 49
2019-04-06 09:00:00 10.5 4 Oeste 14 Noroeste 0 -- -- 56
2019-04-06 08:00:00 8.7 12 Noroeste 22 Noroeste 0 -- -- 60
2019-04-06 07:00:00 9.9 15 Noroeste 25 Oeste 0 -- -- 54
2019-04-06 06:00:00 7.7 9 Noroeste 14 Oeste 0 -- -- 64
2019-04-06 05:00:00 7.9 5 Noroeste 32 Noroeste 0 -- -- 69
2019-04-06 04:00:00 8.4 4 Oeste 22 Noroeste 0 -- -- 64
2019-04-06 03:00:00 8.8 15 Noroeste 25 Noroeste 0 -- -- 69
2019-04-06 02:00:00 9 17 Noroeste 24 Noroeste 0 -- -- 72
2019-04-06 01:00:00 8.7 3 Noroeste 14 Oeste 0 -- -- 82
2019-04-06 00:00:00 9.1 6 Noroeste 9 Noroeste 0 -- -- 86
2019-04-05 23:00:00 10 5 Noroeste 9 Noroeste 0 -- -- 87
2019-04-05 22:00:00 11.1 6 Oeste 14 Sudoeste 0 -- -- 86
2019-04-05 21:00:00 11.1 4 Norte 10 Sudeste 0.4 -- -- 86
2019-04-05 20:00:00 12.5 8 Sudoeste 36 Sudoeste 0.2 -- -- 73
2019-04-05 19:00:00 15 12 Sudoeste 38 Oeste 0 -- -- 53
2019-04-05 18:00:00 15 18 Oeste 40 Oeste 0 -- -- 52
2019-04-05 17:00:00 15.8 18 Sudoeste 34 Sudoeste 0 -- -- 56
2019-04-05 16:00:00 16.2 23 Sur 34 Sur 0 -- -- 62
2019-04-05 15:00:00 16.5 24 Sur 37 Sudoeste 0 -- -- 56
2019-04-05 14:00:00 16.5 25 Sur 37 Sur 0 -- -- 60
2019-04-05 13:00:00 16.2 18 Sur 26 Sur 0 -- -- 55
2019-04-05 12:00:00 14.8 12 Sur 18 Sur 0 -- -- 68
2019-04-05 11:00:00 13.6 6 Sudeste 10 Sur 0 -- -- 72
2019-04-05 10:00:00 12.5 3 Sudoeste 12 Noroeste 0 -- -- 73
2019-04-05 09:00:00 11.2 9 Noroeste 13 Noroeste 0 -- -- 75
2019-04-05 08:00:00 9.1 2 Norte 10 Noroeste 0 -- -- 86
2019-04-05 07:00:00 9.2 3 Noroeste 14 Noroeste 0 -- -- 85
2019-04-05 06:00:00 9.9 14 Norte 24 Norte 0 -- -- 80
2019-04-05 05:00:00 9.9 17 Norte 23 Norte 0 -- -- 80
2019-04-05 04:00:00 9.4 17 Norte 24 Norte 0 -- -- 80
2019-04-05 03:00:00 10.2 14 Norte 18 Norte 0 -- -- 77
2019-04-05 02:00:00 10.4 10 Norte 15 Norte 0 -- -- 77
2019-04-05 01:00:00 10.4 10 Norte 15 Norte 0 -- -- 78
2019-04-05 00:00:00 10.6 8 Norte 10 Norte 0 -- -- 77
2019-04-04 23:00:00 10.8 7 Noroeste 9 Noroeste 0 -- -- 74
2019-04-04 22:00:00 11.6 4 Noroeste 15 Sudoeste 0 -- -- 69
2019-04-04 21:00:00 12.1 7 Sudoeste 17 Sudoeste 0 -- -- 66
2019-04-04 20:00:00 13.4 10 Sudoeste 21 Sudoeste 0 -- -- 60
2019-04-04 19:00:00 14.1 13 Sudoeste 25 Sur 0 -- -- 50
2019-04-04 18:00:00 14.3 15 Sur 28 Sur 0 -- -- 46
2019-04-04 17:00:00 14.6 16 Sur 28 Sur 0 -- -- 41
2019-04-04 16:00:00 14.8 17 Sur 27 Sur 0 -- -- 39
2019-04-04 15:00:00 14.9 15 Sur 26 Sur 0 -- -- 40
2019-04-04 14:00:00 14.4 18 Sur 30 Sur 0 -- -- 41
2019-04-04 13:00:00 15.1 13 Sur 25 Sur 0 -- -- 37
2019-04-04 12:00:00 14.4 7 Nordeste 22 Nordeste 0 -- -- 34
2019-04-04 11:00:00 12.9 5 Sudeste 13 Sur 0 -- -- 43
2019-04-04 10:00:00 11.5 6 Sur 12 Sur 0 -- -- 49
2019-04-04 09:00:00 9.9 3 Sudeste 8 Este 0 -- -- 51
2019-04-04 08:00:00 7.3 7 Noroeste 21 Norte 0 -- -- 56
2019-04-04 07:00:00 8.5 7 Nordeste 14 Nordeste 0 -- -- 53
2019-04-04 06:00:00 8.4 4 Noroeste 13 Sudeste 0 -- -- 62
2019-04-04 05:00:00 9.3 5 Nordeste 15 Norte 0 -- -- 54
2019-04-04 04:00:00 9.1 0 Calma 16 Norte 0 -- -- 62
2019-04-04 03:00:00 9.6 13 Nordeste 18 Nordeste 0 -- -- 53
2019-04-04 02:00:00 9.2 6 Noroeste 19 Norte 0 -- -- 59
2019-04-04 01:00:00 9.9 9 Norte 20 Nordeste 0 -- -- 53
2019-04-04 00:00:00 10.6 14 Nordeste 31 Nordeste 0 -- -- 54
2019-04-03 23:00:00 10.5 20 Nordeste 46 Nordeste 0 -- -- 58
2019-04-03 22:00:00 11.5 19 Nordeste 37 Nordeste 0 -- -- 59
2019-04-03 21:00:00 12.5 12 Nordeste 33 Norte 0 -- -- 60
2019-04-03 20:00:00 12.1 19 Nordeste 36 Nordeste 0 -- -- 68
2019-04-03 19:00:00 12.7 22 Nordeste 32 Nordeste 0 -- -- 72
2019-04-03 18:00:00 14 13 Este 25 Sudeste 1 -- -- 89
2019-04-03 17:00:00 15.8 16 Este 30 Sudeste 0 -- -- 71
2019-04-03 16:00:00 15.9 16 Este 26 Este 0 -- -- 77
2019-04-03 15:00:00 16.2 10 Sudeste 21 Este 0 -- -- 78
2019-04-03 14:00:00 16.1 9 Sur 19 Sudeste 0 -- -- 79
2019-04-03 13:00:00 16.5 13 Sur 22 Sur 0 -- -- 78
2019-04-03 12:00:00 16.9 9 Sur 15 Sudoeste 0 -- -- 71
2019-04-03 11:00:00 15.7 5 Sur 9 Sur 0 -- -- 71
2019-04-03 10:00:00 13.1 4 Noroeste 17 Noroeste 0 -- -- 81
2019-04-03 09:00:00 11.6 11 Norte 23 Norte 0 -- -- 86
2019-04-03 08:00:00 10.8 11 Norte 22 Norte 0 -- -- 85
2019-04-03 07:00:00 10.9 14 Norte 22 Norte 0 -- -- 81
2019-04-03 06:00:00 11.4 8 Nordeste 18 Norte 0 -- -- 78
2019-04-03 05:00:00 11.7 5 Noroeste 21 Norte 0 -- -- 77
2019-04-03 04:00:00 11.9 8 Norte 20 Norte 0 -- -- 80
2019-04-03 03:00:00 11.5 11 Noroeste 18 Noroeste 0 -- -- 85
2019-04-03 02:00:00 12.6 12 Norte 17 Norte 0 -- -- 85
2019-04-03 01:00:00 12.7 10 Norte 15 Norte 0 -- -- 85
2019-04-03 00:00:00 12.9 5 Noroeste 8 Norte 0 -- -- 89
2019-04-02 23:00:00 12.8 4 Noroeste 9 Noroeste 0 -- -- 87
2019-04-02 22:00:00 14 0 Calma 9 Norte 0 -- -- 86
2019-04-02 21:00:00 14.9 3 Noroeste 5 Noroeste 0 -- -- 87
2019-04-02 20:00:00 16 4 Sudoeste 9 Sur 0 -- -- 82
2019-04-02 19:00:00 16.4 5 Sudoeste 22 Sudoeste 0 -- -- 82
2019-04-02 18:00:00 17 6 Oeste 12 Sudeste 0 -- -- 77
2019-04-02 17:00:00 16 6 Sudoeste 13 Oeste 1 -- -- 87
2019-04-02 16:00:00 14.9 7 Sudoeste 12 Sudoeste 1.2 -- -- 88
2019-04-02 15:00:00 16 5 Este 18 Este 0 -- -- 79
2019-04-02 14:00:00 16.5 4 Sudeste 18 Sudeste 0 -- -- 75
2019-04-02 13:00:00 16.9 13 Sur 19 Sur 0 -- -- 74
2019-04-02 12:00:00 16.4 7 Sudeste 13 Sudeste 0 -- -- 74
2019-04-02 11:00:00 16 3 Sur 9 Este 0 -- -- 75
2019-04-02 10:00:00 13.1 4 Norte 10 Norte 0 -- -- 76
2019-04-02 09:00:00 10.8 8 Norte 16 Norte 0 -- -- 79
2019-04-02 08:00:00 9.5 8 Norte 18 Norte 0 -- -- 81
2019-04-02 07:00:00 9.4 11 Norte 17 Norte 0 -- -- 82
2019-04-02 06:00:00 9.3 10 Noroeste 17 Norte 0 -- -- 84
2019-04-02 05:00:00 9.5 12 Norte 18 Norte 0 -- -- 86
2019-04-02 04:00:00 9.8 10 Norte 18 Norte 0 -- -- 85
2019-04-02 03:00:00 9.9 3 Norte 12 Norte 0 -- -- 86
2019-04-02 02:00:00 10.1 8 Norte 11 Norte 0 -- -- 84
2019-04-02 01:00:00 10.7 6 Noroeste 10 Noroeste 0 -- -- 82
2019-04-02 00:00:00 10.5 5 Noroeste 8 Noroeste 0 -- -- 82
2019-04-01 23:00:00 10.8 6 Noroeste 10 Noroeste 0 -- -- 79
2019-04-01 22:00:00 11.3 3 Noroeste 8 Noroeste 0 -- -- 80
2019-04-01 21:00:00 12.5 6 Noroeste 8 Noroeste 0 -- -- 76
2019-04-01 20:00:00 14.9 5 Sur 10 Sudeste 0 -- -- 64
2019-04-01 19:00:00 16.4 4 Sur 10 Sur 0 -- -- 52
2019-04-01 18:00:00 16.3 6 Sudeste 10 Sudeste 0 -- -- 52
2019-04-01 17:00:00 15.8 5 Sudeste 11 Sur 0 -- -- 52
2019-04-01 16:00:00 15.7 8 Sur 16 Sur 0 -- -- 56
2019-04-01 15:00:00 15.9 9 Sur 18 Sur 0 -- -- 55
2019-04-01 14:00:00 15.8 8 Norte 16 Nordeste 0 -- -- 55
2019-04-01 13:00:00 14.4 9 Nordeste 16 Nordeste 0 -- -- 63
2019-04-01 12:00:00 13.1 6 Este 19 Nordeste 0 -- -- 73
2019-04-01 11:00:00 12.7 14 Norte 24 Norte 0 -- -- 69
2019-04-01 10:00:00 12.2 13 Norte 24 Norte 0 -- -- 76
2019-04-01 09:00:00 11.6 13 Norte 23 Norte 0 -- -- 80
2019-04-01 08:00:00 11.6 14 Norte 27 Nordeste 0 -- -- 81
2019-04-01 07:00:00 11.8 12 Norte 22 Nordeste 0 -- -- 81
2019-04-01 06:00:00 11.4 12 Norte 18 Norte 0 -- -- 90
2019-04-01 05:00:00 11.5 13 Norte 23 Norte 0 -- -- 91
2019-04-01 04:00:00 11.9 13 Norte 27 Norte 0 -- -- 89
2019-04-01 03:00:00 11.6 14 Norte 24 Norte 0 -- -- 88
2019-04-01 02:00:00 11.5 16 Norte 23 Norte 0 -- -- 89
2019-04-01 01:00:00 11.8 13 Norte 26 Norte 0.2 -- -- 90
2019-04-01 00:00:00 11.6 13 Norte 29 Norte 0.2 -- -- 91
2019-03-31 23:00:00 11.9 18 Norte 28 Norte 0.2 -- -- 89
2019-03-31 22:00:00 11.8 17 Norte 28 Norte 1 -- -- 91
2019-03-31 21:00:00 11.9 15 Norte 22 Norte 0.6 -- -- 92
2019-03-31 20:00:00 12.1 10 Nordeste 27 Nordeste 0.4 -- -- 92
2019-03-31 19:00:00 12.3 14 Nordeste 32 Nordeste 0.6 -- -- 91
2019-03-31 18:00:00 12.5 11 Nordeste 21 Nordeste 0.8 -- -- 93
2019-03-31 17:00:00 12.6 9 Este 17 Nordeste 1.2 -- -- 93
2019-03-31 16:00:00 12.5 9 Nordeste 22 Nordeste 1.4 -- -- 92
2019-03-31 15:00:00 12.8 10 Nordeste 22 Nordeste 0.8 -- -- 90
2019-03-31 14:00:00 12.6 14 Nordeste 27 Nordeste 1 -- -- 89
2019-03-31 13:00:00 13.2 12 Nordeste 18 Nordeste 0 -- -- 83
2019-03-31 12:00:00 12.5 7 Norte 22 Nordeste 0.4 -- -- 87
2019-03-31 11:00:00 12.4 11 Nordeste 20 Nordeste 0 -- -- 78
2019-03-31 10:00:00 12.5 11 Nordeste 20 Norte 0 -- -- 71
2019-03-31 09:00:00 12.1 9 Norte 23 Norte 0 -- -- 71
2019-03-31 08:00:00 11.6 18 Norte 27 Norte 0 -- -- 74
2019-03-31 07:00:00 11.5 13 Norte 20 Norte 0 -- -- 75
2019-03-31 06:00:00 11.1 13 Norte 23 Norte 0 -- -- 77
2019-03-31 05:00:00 10.6 17 Norte 27 Norte 0 -- -- 75
2019-03-31 03:00:00 9.8 15 Norte 22 Norte 0 -- -- 80
2019-03-31 01:00:00 9.6 17 Norte 21 Norte 0 -- -- 81
2019-03-31 00:00:00 9.5 16 Norte 22 Norte 0 -- -- 80
2019-03-30 23:00:00 10.1 16 Norte 21 Norte 0 -- -- 78
2019-03-30 22:00:00 10.5 13 Norte 23 Norte 0 -- -- 77
2019-03-30 21:00:00 11.9 10 Norte 13 Norte 0 -- -- 72
2019-03-30 20:00:00 12 7 Nordeste 14 Este 0 -- -- 72
2019-03-30 19:00:00 13.3 9 Este 28 Este 0 -- -- 68
2019-03-30 18:00:00 14.2 17 Este 32 Sudeste 0 -- -- 66
2019-03-30 17:00:00 15.2 21 Sudeste 30 Sudeste 0 -- -- 61
2019-03-30 16:00:00 16.2 17 Sudeste 26 Sudeste 0 -- -- 57
2019-03-30 15:00:00 16.2 15 Sudeste 27 Sudeste 0 -- -- 58
2019-03-30 14:00:00 16.1 16 Sudeste 28 Sudeste 0 -- -- 49
2019-03-30 13:00:00 16.3 16 Sudeste 27 Este 0 -- -- 56
2019-03-30 12:00:00 16.1 14 Sudeste 26 Sudeste 0 -- -- 56
2019-03-30 11:00:00 15.9 15 Sudeste 22 Sudeste 0 -- -- 56
2019-03-30 10:00:00 14 8 Nordeste 18 Este 0 -- -- 61
2019-03-30 09:00:00 12.5 12 Norte 24 Norte 0 -- -- 69
2019-03-30 08:00:00 9.6 18 Norte 27 Norte 0 -- -- 72
2019-03-30 07:00:00 8.1 19 Norte 27 Norte 0 -- -- 75
2019-03-30 06:00:00 8.4 19 Norte 27 Norte 0 -- -- 73
2019-03-30 05:00:00 8.4 19 Norte 27 Norte 0 -- -- 72
2019-03-30 04:00:00 8.8 21 Norte 27 Norte 0 -- -- 68
2019-03-30 03:00:00 9.3 18 Norte 24 Norte 0 -- -- 71
2019-03-30 02:00:00 9.9 16 Norte 25 Norte 0 -- -- 66
2019-03-30 01:00:00 10.3 16 Norte 22 Norte 0 -- -- 67
2019-03-30 00:00:00 10.6 15 Norte 20 Norte 0 -- -- 66
2019-03-29 23:00:00 11.1 14 Norte 20 Norte 0 -- -- 66
2019-03-29 22:00:00 11.6 8 Norte 12 Norte 0 -- -- 65
2019-03-29 21:00:00 12.1 4 Nordeste 6 Nordeste 0 -- -- 68
2019-03-29 20:00:00 12.7 4 Este 6 Sudeste 0 -- -- 65
2019-03-29 19:00:00 14.7 5 Sudeste 16 Sur 0 -- -- 58
2019-03-29 18:00:00 15.9 8 Sudeste 19 Sudeste 0 -- -- 54
2019-03-29 17:00:00 16.5 11 Sudeste 22 Sudeste 0 -- -- 52
2019-03-29 16:00:00 17 10 Sudeste 21 Sur 0 -- -- 44
2019-03-29 15:00:00 17.1 13 Sudeste 21 Sudeste 0 -- -- 56
2019-03-29 14:00:00 17.3 11 Sudeste 21 Sur 0 -- -- 59
2019-03-29 13:00:00 16.8 11 Sur 22 Sudeste 0 -- -- 58
2019-03-29 12:00:00 16.6 9 Sur 18 Sudeste 0 -- -- 56
2019-03-29 11:00:00 16.2 8 Sur 16 Sudeste 0 -- -- 60
2019-03-29 10:00:00 15.3 5 Sur 10 Sur 0 -- -- 61
2019-03-29 09:00:00 13.8 3 Sur 7 Norte 0 -- -- 64
2019-03-29 08:00:00 10.5 5 Norte 14 Noroeste 0 -- -- 59
2019-03-29 07:00:00 8.2 4 Oeste 26 Norte 0 -- -- 50
2019-03-29 06:00:00 8.4 18 Norte 26 Norte 0 -- -- 51
2019-03-29 05:00:00 8.6 17 Norte 24 Norte 0 -- -- 57
2019-03-29 04:00:00 8.5 14 Norte 19 Norte 0 -- -- 66
2019-03-29 03:00:00 9.1 12 Norte 19 Norte 0 -- -- 62
2019-03-29 02:00:00 9.7 8 Norte 16 Norte 0 -- -- 66
2019-03-29 01:00:00 9.4 11 Norte 16 Norte 0 -- -- 70
2019-03-29 00:00:00 9.5 10 Norte 17 Norte 0 -- -- 74
2019-03-28 23:00:00 10.2 10 Norte 13 Norte 0 -- -- 71
2019-03-28 22:00:00 10.7 9 Noroeste 11 Noroeste 0 -- -- 72
2019-03-28 21:00:00 11 7 Noroeste 9 Noroeste 0 -- -- 78
2019-03-28 20:00:00 12.2 6 Noroeste 7 Noroeste 0 -- -- 72
2019-03-28 19:00:00 14.5 5 Sur 14 Sur 0 -- -- 67
2019-03-28 18:00:00 15.3 9 Sur 17 Sur 0 -- -- 59
2019-03-28 17:00:00 16.2 12 Sur 18 Sur 0 -- -- 53
2019-03-28 16:00:00 16.6 13 Sur 22 Sur 0 -- -- 45
2019-03-28 15:00:00 17.3 14 Sudeste 27 Sudeste 0 -- -- 35
2019-03-28 14:00:00 17.7 16 Sudeste 26 Sudeste 0 -- -- 34
2019-03-28 13:00:00 17.4 14 Sudeste 23 Sur 0 -- -- 40
2019-03-28 12:00:00 17.8 12 Sudeste 20 Sudeste 0 -- -- 43
2019-03-28 11:00:00 17.5 10 Sur 17 Sudeste 0 -- -- 42
2019-03-28 10:00:00 16.3 9 Norte 18 Norte 0 -- -- 33
2019-03-28 09:00:00 12.8 9 Nordeste 25 Norte 0 -- -- 41
2019-03-28 08:00:00 9.3 21 Norte 27 Norte 0 -- -- 47
2019-03-28 07:00:00 8.1 18 Norte 23 Norte 0 -- -- 50
2019-03-28 06:00:00 8.3 3 Nordeste 23 Norte 0 -- -- 50
2019-03-28 05:00:00 8.6 16 Norte 25 Norte 0 -- -- 48
2019-03-28 04:00:00 7.9 18 Norte 26 Norte 0 -- -- 53
2019-03-28 03:00:00 8.8 6 Norte 15 Norte 0 -- -- 55
2019-03-28 02:00:00 9 10 Norte 21 Norte 0 -- -- 58
2019-03-28 01:00:00 9.4 7 Norte 11 Norte 0 -- -- 57
2019-03-28 00:00:00 8.7 4 Norte 6 Norte 0 -- -- 56
2019-03-27 23:00:00 9.6 5 Noroeste 7 Noroeste 0 -- -- 57
2019-03-27 22:00:00 10 5 Noroeste 8 Noroeste 0 -- -- 58
2019-03-27 21:00:00 11.7 5 Noroeste 11 Noroeste 0 -- -- 51
2019-03-27 20:00:00 12 8 Noroeste 13 Sudoeste 0 -- -- 56
2019-03-27 19:00:00 14.5 9 Sudoeste 18 Sur 0 -- -- 54
2019-03-27 18:00:00 15.7 13 Sur 23 Sudoeste 0 -- -- 52
2019-03-27 17:00:00 16.1 15 Sur 24 Sudoeste 0 -- -- 48
2019-03-27 16:00:00 16.6 12 Sur 25 Sur 0 -- -- 46
2019-03-27 15:00:00 17 13 Sudeste 23 Sur 0 -- -- 43
2019-03-27 14:00:00 16.5 14 Sudeste 23 Sudeste 0 -- -- 52
2019-03-27 13:00:00 16.3 15 Sudeste 23 Sur 0 -- -- 49
2019-03-27 12:00:00 16.6 9 Sur 20 Sudeste 0 -- -- 48
2019-03-27 11:00:00 16.7 10 Sur 17 Sur 0 -- -- 49
2019-03-27 10:00:00 15.5 6 Sudeste 12 Sudeste 0 -- -- 52
2019-03-27 09:00:00 13.3 6 Norte 20 Norte 0 -- -- 52
2019-03-27 08:00:00 10.4 15 Norte 25 Norte 0 -- -- 63
2019-03-27 07:00:00 9.2 6 Noroeste 24 Norte 0 -- -- 70
2019-03-27 06:00:00 9.7 15 Norte 21 Norte 0 -- -- 69
2019-03-27 05:00:00 10.3 11 Norte 22 Noroeste 0 -- -- 67
2019-03-27 04:00:00 10.9 15 Noroeste 26 Noroeste 0 -- -- 66
2019-03-27 03:00:00 11 12 Noroeste 18 Noroeste 0 -- -- 67
2019-03-27 02:00:00 10.9 12 Noroeste 17 Noroeste 0 -- -- 68
2019-03-27 01:00:00 11.8 6 Noroeste 9 Noroeste 0 -- -- 65
2019-03-27 00:00:00 13.1 4 Noroeste 8 Sudoeste 0 -- -- 60
2019-03-26 23:00:00 13.3 5 Oeste 10 Sudoeste 0 -- -- 58
2019-03-26 22:00:00 13.4 4 Sudoeste 14 Sur 0 -- -- 59
2019-03-26 21:00:00 13.4 8 Sur 15 Sur 0 -- -- 58
2019-03-26 20:00:00 13.5 6 Sur 25 Sudeste 0 -- -- 60
2019-03-26 19:00:00 14.2 13 Sudeste 23 Sudeste 0 -- -- 62
2019-03-26 18:00:00 15.6 15 Sur 27 Sur 0 -- -- 60
2019-03-26 17:00:00 16.5 18 Sur 32 Sur 0 -- -- 61
2019-03-26 16:00:00 16.9 19 Sur 28 Sur 0 -- -- 59
2019-03-26 15:00:00 17.5 19 Sur 27 Sudoeste 0 -- -- 55
2019-03-26 14:00:00 17.8 16 Sur 24 Sur 0 -- -- 50
2019-03-26 13:00:00 18.1 13 Sur 27 Sur 0 -- -- 48
2019-03-26 12:00:00 18.4 17 Sudeste 30 Este 0 -- -- 37
2019-03-26 11:00:00 18 14 Este 24 Este 0 -- -- 36
2019-03-26 10:00:00 16.6 12 Nordeste 22 Nordeste 0 -- -- 38
2019-03-26 09:00:00 14.6 11 Nordeste 28 Nordeste 0 -- -- 43
2019-03-26 08:00:00 12.9 18 Norte 32 Nordeste 0 -- -- 46
2019-03-26 07:00:00 12.1 22 Norte 35 Norte 0 -- -- 47
2019-03-26 06:00:00 12.3 22 Norte 32 Norte 0 -- -- 46
2019-03-26 05:00:00 12.5 18 Norte 28 Norte 0 -- -- 43
2019-03-26 04:00:00 12.4 17 Norte 27 Norte 0 -- -- 44
2019-03-26 03:00:00 13 16 Norte 28 Nordeste 0 -- -- 42
2019-03-26 02:00:00 13.4 17 Nordeste 30 Norte 0 -- -- 42
2019-03-26 01:00:00 14 15 Norte 26 Norte 0 -- -- 40
2019-03-26 00:00:00 11.7 2 Norte 8 Nordeste 0 -- -- 48
2019-03-25 23:00:00 14.6 5 Noroeste 20 Norte 0 -- -- 41
2019-03-25 22:00:00 13.9 9 Norte 15 Norte 0 -- -- 44
2019-03-25 21:00:00 14.2 6 Noroeste 15 Norte 0 -- -- 54
2019-03-25 20:00:00 14 5 Norte 9 Noroeste 0 -- -- 58
2019-03-25 19:00:00 17.1 3 Sudoeste 12 Sur 0 -- -- 52
2019-03-25 18:00:00 18.3 8 Sudoeste 13 Sudoeste 0 -- -- 47
2019-03-25 17:00:00 18.9 7 Sudoeste 17 Sur 0 -- -- 52
2019-03-25 16:00:00 18.9 11 Sur 18 Sur 0 -- -- 49
2019-03-25 15:00:00 19.4 10 Sur 23 Sudoeste 0 -- -- 47
2019-03-25 14:00:00 18.9 14 Sur 22 Sur 0 -- -- 54
2019-03-25 13:00:00 18.9 13 Sur 22 Sur 0 -- -- 48
2019-03-25 12:00:00 19 11 Sur 18 Sur 0 -- -- 50
2019-03-25 11:00:00 18.6 13 Sudoeste 19 Sur 0 -- -- 46
2019-03-25 10:00:00 20.4 6 Sudeste 17 Nordeste 0 -- -- 48
2019-03-25 09:00:00 17.3 8 Este 15 Norte 0 -- -- 39
2019-03-25 08:00:00 14.5 13 Norte 26 Norte 0 -- -- 42
2019-03-25 07:00:00 13.3 11 Norte 21 Norte 0 -- -- 42
2019-03-25 06:00:00 12.9 9 Noroeste 17 Norte 0 -- -- 42
2019-03-25 05:00:00 12.8 4 Oeste 17 Norte 0 -- -- 41
2019-03-25 04:00:00 12.2 9 Noroeste 17 Norte 0 -- -- 43
2019-03-25 03:00:00 11.8 14 Norte 20 Norte 0 -- -- 45
2019-03-25 02:00:00 13.1 9 Norte 17 Norte 0 -- -- 42
2019-03-25 01:00:00 13.1 8 Norte 14 Norte 0 -- -- 42
2019-03-25 00:00:00 13.9 8 Norte 21 Norte 0 -- -- 40
2019-03-24 23:00:00 14.6 8 Noroeste 15 Norte 0 -- -- 40
2019-03-24 22:00:00 14.1 6 Norte 17 Oeste 0 -- -- 44
2019-03-24 21:00:00 15.7 9 Nordeste 17 Norte 0 -- -- 52
2019-03-24 20:00:00 15.5 3 Nordeste 8 Norte 0 -- -- 62
2019-03-24 19:00:00 17.7 2 Oeste 10 Sudoeste 0 -- -- 56
2019-03-24 18:00:00 19.5 7 Sur 10 Sur 0 -- -- 45
2019-03-24 17:00:00 19.7 6 Sur 14 Sur 0 -- -- 45
2019-03-24 16:00:00 20.1 10 Sur 17 Sur 0 -- -- 43
2019-03-24 15:00:00 20.6 8 Sur 14 Sur 0 -- -- 42
2019-03-24 14:00:00 20 9 Sur 15 Sur 0 -- -- 43
2019-03-24 13:00:00 19.8 10 Sur 16 Sur 0 -- -- 48
2019-03-24 12:00:00 20.1 10 Sur 16 Sur 0 -- -- 47
2019-03-24 11:00:00 21.1 6 Sur 10 Sur 0 -- -- 41
2019-03-24 10:00:00 19.5 5 Sudoeste 8 Sur 0 -- -- 37
2019-03-24 09:00:00 16.7 5 Este 21 Norte 0 -- -- 47
2019-03-24 08:00:00 14 13 Norte 25 Norte 0 -- -- 39
2019-03-24 07:00:00 12 15 Norte 26 Norte 0 -- -- 45
2019-03-24 06:00:00 11.9 12 Norte 20 Noroeste 0 -- -- 47
2019-03-24 05:00:00 12.5 10 Noroeste 18 Norte 0 -- -- 47
2019-03-24 04:00:00 12.2 5 Noroeste 20 Norte 0 -- -- 49
2019-03-24 03:00:00 13.1 7 Norte 23 Norte 0 -- -- 47
2019-03-24 02:00:00 12.7 11 Norte 23 Norte 0 -- -- 50
2019-03-24 01:00:00 12.3 14 Norte 18 Norte 0 -- -- 53
2019-03-24 00:00:00 12.5 9 Noroeste 17 Norte 0 -- -- 54
2019-03-23 23:00:00 12.3 3 Norte 15 Noroeste 0 -- -- 55
2019-03-23 22:00:00 13.8 6 Noroeste 13 Noroeste 0 -- -- 50
2019-03-23 21:00:00 13.3 3 Noroeste 14 Norte 0 -- -- 54
2019-03-23 20:00:00 13.5 4 Nordeste 9 Sudoeste 0 -- -- 59
2019-03-23 19:00:00 16.1 3 Sur 13 Sudoeste 0 -- -- 53
2019-03-23 18:00:00 17.4 7 Sur 17 Sur 0 -- -- 43
2019-03-23 17:00:00 18.4 11 Sur 17 Sur 0 -- -- 32
2019-03-23 16:00:00 18.8 13 Sur 19 Sur 0 -- -- 32
2019-03-23 15:00:00 18.9 8 Sur 19 Sudeste 0 -- -- 32
2019-03-23 14:00:00 18.8 10 Sur 20 Sur 0 -- -- 34
2019-03-23 13:00:00 19 11 Sur 18 Sur 0 -- -- 31
2019-03-23 12:00:00 19.1 9 Sur 17 Sudeste 0 -- -- 33
2019-03-23 11:00:00 18.5 12 Sur 21 Este 0 -- -- 37
2019-03-23 10:00:00 17.6 7 Nordeste 15 Norte 0 -- -- 37
2019-03-23 09:00:00 14.7 14 Norte 25 Norte 0 -- -- 40
2019-03-23 08:00:00 11.8 21 Norte 26 Norte 0 -- -- 43
2019-03-23 07:00:00 11 17 Norte 24 Norte 0 -- -- 43
2019-03-23 06:00:00 10.7 18 Norte 28 Norte 0 -- -- 45
2019-03-23 05:00:00 10.9 19 Norte 24 Norte 0 -- -- 45
2019-03-23 04:00:00 11.2 19 Norte 24 Norte 0 -- -- 47
2019-03-23 03:00:00 11.6 17 Norte 24 Norte 0 -- -- 46
2019-03-23 02:00:00 12 11 Norte 19 Norte 0 -- -- 47
2019-03-23 01:00:00 12.8 9 Norte 19 Norte 0 -- -- 46
2019-03-23 00:00:00 12.5 9 Nordeste 26 Norte 0 -- -- 50
2019-03-22 23:00:00 12.2 15 Norte 25 Norte 0 -- -- 51
2019-03-22 22:00:00 13.3 12 Este 24 Norte 0 -- -- 50
2019-03-22 21:00:00 13.9 3 Norte 13 Nordeste 0 -- -- 43
2019-03-22 20:00:00 14.4 7 Nordeste 11 Nordeste 0 -- -- 42
2019-03-22 19:00:00 15.8 4 Norte 15 Sudeste 0 -- -- 41
2019-03-22 18:00:00 17.1 9 Este 23 Sudeste 0 -- -- 38
2019-03-22 17:00:00 17.9 16 Sudeste 33 Sudeste 0 -- -- 33
2019-03-22 16:00:00 18.4 21 Sudeste 34 Sudeste 0 -- -- 32
2019-03-22 15:00:00 18.8 20 Este 35 Este 0 -- -- 33
2019-03-22 14:00:00 19 22 Sudeste 39 Sudeste 0 -- -- 32
2019-03-22 13:00:00 18.9 25 Sudeste 33 Sudeste 0 -- -- 32
2019-03-22 12:00:00 17.2 20 Este 29 Este 0 -- -- 34
2019-03-22 11:00:00 17.1 13 Este 29 Este 0 -- -- 37
2019-03-22 10:00:00 15.3 15 Nordeste 27 Norte 0 -- -- 40
2019-03-22 09:00:00 12.4 18 Norte 30 Norte 0 -- -- 47
2019-03-22 08:00:00 11.3 21 Norte 29 Norte 0 -- -- 47
2019-03-22 07:00:00 9.1 12 Norte 28 Norte 0 -- -- 54
2019-03-22 06:00:00 8.9 23 Norte 30 Norte 0 -- -- 54
2019-03-22 05:00:00 8.2 22 Norte 29 Norte 0 -- -- 60
2019-03-22 04:00:00 8.6 21 Norte 28 Norte 0 -- -- 60
2019-03-22 03:00:00 8.8 18 Norte 25 Norte 0 -- -- 61
2019-03-22 02:00:00 8.3 19 Norte 25 Norte 0 -- -- 64
2019-03-22 01:00:00 8.5 16 Norte 26 Norte 0 -- -- 63
2019-03-22 00:00:00 9.1 18 Norte 25 Norte 0 -- -- 63
2019-03-21 23:00:00 9.6 17 Norte 22 Norte 0 -- -- 62
2019-03-21 22:00:00 10.1 15 Norte 19 Norte 0 -- -- 62
2019-03-21 21:00:00 10.8 13 Norte 16 Norte 0 -- -- 63
2019-03-21 20:00:00 11.2 3 Norte 5 Este 0 -- -- 65
2019-03-21 19:00:00 13 6 Este 25 Sudeste 0 -- -- 60
2019-03-21 18:00:00 14.1 20 Este 32 Sudeste 0 -- -- 54
2019-03-21 17:00:00 14.9 20 Este 34 Sudeste 0 -- -- 49
2019-03-21 16:00:00 15.8 25 Sudeste 35 Sudeste 0 -- -- 42
2019-03-21 15:00:00 15.9 24 Sudeste 37 Sudeste 0 -- -- 42
2019-03-21 14:00:00 16.1 26 Sudeste 39 Sudeste 0 -- -- 38
2019-03-21 13:00:00 16.2 25 Este 42 Sudeste 0 -- -- 36
2019-03-21 12:00:00 16.5 23 Sudeste 36 Este 0 -- -- 35
2019-03-21 11:00:00 16.1 16 Este 28 Este 0 -- -- 33
2019-03-21 10:00:00 14.7 15 Nordeste 26 Nordeste 0 -- -- 39
2019-03-21 09:00:00 11.9 18 Norte 26 Norte 0 -- -- 48
2019-03-21 08:00:00 9.8 12 Norte 24 Norte 0 -- -- 51
2019-03-21 07:00:00 8.3 17 Norte 24 Norte 0 -- -- 55
2019-03-21 06:00:00 7.9 11 Norte 19 Nordeste 0 -- -- 58
2019-03-21 05:00:00 7.7 0 Calma 12 Oeste 0 -- -- 65
2019-03-21 04:00:00 8.6 3 Sudoeste 23 Norte 0 -- -- 63
2019-03-21 03:00:00 8.3 17 Norte 26 Norte 0 -- -- 70
2019-03-21 02:00:00 7.6 17 Norte 27 Norte 0 -- -- 74
2019-03-21 01:00:00 8.4 17 Norte 26 Norte 0 -- -- 73
2019-03-21 00:00:00 8.4 19 Norte 24 Norte 0 -- -- 74
2019-03-20 23:00:00 8.7 18 Norte 23 Norte 0 -- -- 75
2019-03-20 22:00:00 9.4 18 Norte 21 Norte 0 -- -- 74
2019-03-20 21:00:00 10.1 9 Norte 12 Norte 0 -- -- 73
2019-03-20 20:00:00 10.5 8 Norte 10 Norte 0 -- -- 72
2019-03-20 19:00:00 12.8 4 Sudeste 14 Sudeste 0 -- -- 63
2019-03-20 18:00:00 13.6 10 Sudeste 23 Este 0 -- -- 60
2019-03-20 17:00:00 14.4 13 Sudeste 26 Sudeste 0 -- -- 57
2019-03-20 16:00:00 15.4 12 Sudeste 22 Sudeste 0 -- -- 47
2019-03-20 15:00:00 15.4 11 Sur 23 Sudeste 0 -- -- 48
2019-03-20 14:00:00 15.2 14 Sur 24 Sudeste 0 -- -- 49
2019-03-20 13:00:00 15.3 14 Sudeste 23 Sudeste 0 -- -- 47
2019-03-20 12:00:00 15.3 13 Sudeste 26 Sudeste 0 -- -- 47
2019-03-20 11:00:00 14.9 7 Este 18 Nordeste 0 -- -- 49
2019-03-20 10:00:00 13.2 12 Nordeste 27 Norte 0 -- -- 51
2019-03-20 09:00:00 10.4 13 Norte 18 Norte 0 -- -- 65
2019-03-20 08:00:00 8.7 8 Norte 15 Noroeste 0 -- -- 71
2019-03-20 07:00:00 8.5 5 Norte 20 Noroeste 0 -- -- 76
2019-03-20 06:00:00 8.8 12 Norte 16 Norte 0 -- -- 81
2019-03-20 05:00:00 9.6 4 Norte 7 Este 0 -- -- 78
2019-03-20 04:00:00 9.2 3 Nordeste 21 Norte 0 -- -- 77
2019-03-20 03:00:00 9 14 Norte 24 Norte 0 -- -- 72
2019-03-20 02:00:00 9.5 15 Norte 26 Norte 0 -- -- 72
2019-03-20 01:00:00 9.1 13 Norte 21 Norte 0 -- -- 90
2019-03-20 00:00:00 9.1 9 Norte 16 Noroeste 0 -- -- 90
2019-03-19 23:00:00 9.4 6 Noroeste 12 Noroeste 0.6 -- -- 91
2019-03-19 22:00:00 9.3 5 Sudeste 23 Este 4.6 -- -- 90
2019-03-19 21:00:00 12.1 3 Norte 8 Noroeste 0 -- -- 77
2019-03-19 20:00:00 12.4 4 Oeste 7 Noroeste 0 -- -- 72
2019-03-19 19:00:00 13 4 Sudoeste 11 Sur 0 -- -- 69
2019-03-19 18:00:00 13.3 10 Sur 17 Sudeste 0 -- -- 67
2019-03-19 17:00:00 14.1 9 Sur 16 Sudeste 0 -- -- 56
2019-03-19 16:00:00 14.6 13 Sur 26 Sur 0 -- -- 53
2019-03-19 15:00:00 15.3 15 Sur 29 Sudeste 0 -- -- 52
2019-03-19 14:00:00 15.6 19 Sudeste 30 Sudeste 0 -- -- 46
2019-03-19 13:00:00 17.3 17 Nordeste 32 Norte 0 -- -- 33
2019-03-19 12:00:00 15.9 21 Norte 40 Norte 0 -- -- 38
2019-03-19 11:00:00 15 22 Norte 39 Norte 0 -- -- 40
2019-03-19 10:00:00 13.9 22 Norte 42 Norte 0 -- -- 43
2019-03-19 09:00:00 12.4 24 Norte 37 Norte 0 -- -- 49
2019-03-19 08:00:00 10.9 13 Nordeste 28 Nordeste 0 -- -- 54
2019-03-19 07:00:00 10.8 13 Norte 29 Norte 0 -- -- 56
2019-03-19 06:00:00 11 9 Norte 27 Norte 0 -- -- 55
2019-03-19 05:00:00 12 19 Norte 29 Norte 0 -- -- 48
2019-03-19 04:00:00 12.2 9 Norte 21 Norte 0 -- -- 42
2019-03-19 03:00:00 12.4 13 Norte 29 Norte 0 -- -- 39
2019-03-19 02:00:00 12.5 14 Norte 27 Norte 0 -- -- 40
2019-03-19 01:00:00 12.2 11 Norte 23 Norte 0 -- -- 40
2019-03-19 00:00:00 12.2 9 Noroeste 26 Norte 0 -- -- 38